createdAt,value
2018-09-17T00:01:53.655Z,88.54
2018-09-17T00:04:21.732Z,88.23
2018-09-17T00:06:50.154Z,89.06
2018-09-17T00:09:18.178Z,88.92
2018-09-17T00:11:46.269Z,89.56
2018-09-17T00:14:15.624Z,88.97
2018-09-17T00:16:43.605Z,89.73
2018-09-17T00:19:11.584Z,89.33
2018-09-17T00:21:39.595Z,89.93
2018-09-17T00:24:07.678Z,89.68
2018-09-17T00:26:35.719Z,90.03
2018-09-17T00:29:03.868Z,89.87
2018-09-17T00:31:31.925Z,89.33
2018-09-17T00:33:59.990Z,89.98
2018-09-17T00:36:28.204Z,90.30
2018-09-17T00:38:56.399Z,90.22
2018-09-17T00:41:24.459Z,89.82
2018-09-17T00:43:52.439Z,90.69
2018-09-17T00:46:20.469Z,91.22
2018-09-17T00:48:48.634Z,90.50
2018-09-17T00:51:17.352Z,90.18
2018-09-17T00:53:45.338Z,90.54
2018-09-17T00:56:13.325Z,91.39
2018-09-17T00:58:41.416Z,90.88
2018-09-17T01:01:09.521Z,90.90
2018-09-17T01:03:37.487Z,91.21
2018-09-17T01:06:05.492Z,92.26
2018-09-17T01:08:33.580Z,90.46
2018-09-17T01:11:01.552Z,91.60
2018-09-17T01:13:29.778Z,91.42
2018-09-17T01:15:58.079Z,91.74
2018-09-17T01:18:26.196Z,91.67
2018-09-17T01:20:54.179Z,92.37
2018-09-17T01:23:22.147Z,91.72
2018-09-17T01:25:50.178Z,91.55
2018-09-17T01:28:18.250Z,92.90
2018-09-17T01:30:46.225Z,92.84
2018-09-17T01:33:14.188Z,93.04
2018-09-17T01:35:42.186Z,92.58
2018-09-17T01:38:10.259Z,92.04
2018-09-17T01:40:38.276Z,92.30
2018-09-17T01:43:06.562Z,92.48
2018-09-17T01:45:34.593Z,92.04
2018-09-17T01:48:02.616Z,92.31
2018-09-17T01:50:30.795Z,93.05
2018-09-17T01:52:58.834Z,92.93
2018-09-17T01:55:27.004Z,92.02
2018-09-17T01:57:55.346Z,92.82
2018-09-17T02:00:23.456Z,92.75
2018-09-17T02:02:51.473Z,92.80
2018-09-17T02:05:19.542Z,93.03
2018-09-17T02:07:47.622Z,92.79
2018-09-17T02:10:15.637Z,94.08
2018-09-17T02:12:43.621Z,93.38
2018-09-17T02:15:11.680Z,92.61
2018-09-17T02:17:39.782Z,93.10
2018-09-17T02:20:07.767Z,93.81
2018-09-17T02:22:35.865Z,94.04
2018-09-17T02:25:04.010Z,93.45
2018-09-17T02:27:32.267Z,93.24
2018-09-17T02:30:00.382Z,93.83
2018-09-17T02:32:28.486Z,93.70
2018-09-17T02:34:56.480Z,93.74
2018-09-17T02:37:24.680Z,93.67
2018-09-17T02:39:52.707Z,93.92
2018-09-17T02:42:20.701Z,94.04
2018-09-17T02:44:48.821Z,93.55
2018-09-17T02:47:16.887Z,94.17
2018-09-17T02:49:44.913Z,95.38
2018-09-17T02:52:12.947Z,94.24
2018-09-17T02:54:40.966Z,94.28
2018-09-17T02:57:09.145Z,95.41
2018-09-17T02:59:37.254Z,94.89
2018-09-17T03:02:05.427Z,95.63
2018-09-17T03:04:33.422Z,95.61
2018-09-17T03:07:01.476Z,95.57
2018-09-17T03:09:29.457Z,94.26
2018-09-17T03:11:57.575Z,95.38
2018-09-17T03:14:28.279Z,94.76
2018-09-17T03:17:11.684Z,95.25
2018-09-17T03:19:40.657Z,95.32
2018-09-17T03:22:09.075Z,94.48
2018-09-17T03:24:37.324Z,94.74
2018-09-17T03:27:05.661Z,95.23
2018-09-17T03:29:33.687Z,95.10
2018-09-17T03:32:01.734Z,95.17
2018-09-17T03:34:29.745Z,94.66
2018-09-17T03:36:57.906Z,95.52
2018-09-17T03:39:26.065Z,95.48
2018-09-17T03:41:54.121Z,95.58
2018-09-17T03:44:22.167Z,96.09
2018-09-17T03:46:50.231Z,95.59
2018-09-17T03:49:18.484Z,95.91
2018-09-17T03:51:46.572Z,96.08
2018-09-17T03:54:14.855Z,95.53
2018-09-17T03:59:22.982Z,95.90
2018-09-17T04:01:51.045Z,96.18
2018-09-17T04:04:19.066Z,95.62
2018-09-17T04:06:47.138Z,95.96
2018-09-17T04:09:15.315Z,96.18
2018-09-17T04:11:43.384Z,96.00
2018-09-17T04:14:11.428Z,96.25
2018-09-17T04:16:39.482Z,96.10
2018-09-17T04:19:07.633Z,96.87
2018-09-17T04:21:35.772Z,96.52
2018-09-17T04:24:03.881Z,96.36
2018-09-17T04:26:31.964Z,96.46
2018-09-17T04:29:00.214Z,96.39
2018-09-17T04:31:28.360Z,96.44
2018-09-17T04:33:56.472Z,96.63
2018-09-17T04:36:24.596Z,96.21
2018-09-17T04:38:53.038Z,95.36
2018-09-17T04:41:21.283Z,95.19
2018-09-17T04:43:49.430Z,95.50
2018-09-17T04:46:17.438Z,94.65
2018-09-17T04:48:45.606Z,94.26
2018-09-17T04:51:13.739Z,93.57
2018-09-17T04:53:41.764Z,93.56
2018-09-17T04:56:10.213Z,94.21
2018-09-17T04:58:39.046Z,92.57
2018-09-17T05:01:07.654Z,90.83
2018-09-17T05:03:36.196Z,87.91
2018-09-17T05:06:05.647Z,83.69
2018-09-17T05:08:34.279Z,81.71
2018-09-17T05:11:03.587Z,81.29
2018-09-17T05:13:33.008Z,78.03
2018-09-17T05:16:02.077Z,78.11
2018-09-17T05:18:30.261Z,77.72
2018-09-17T05:20:58.496Z,75.62
2018-09-17T05:23:26.669Z,76.20
2018-09-17T05:25:54.857Z,76.49
2018-09-17T05:28:23.155Z,77.38
2018-09-17T05:30:51.414Z,77.94
2018-09-17T05:33:19.659Z,79.16
2018-09-17T05:35:47.867Z,79.19
2018-09-17T05:38:16.078Z,78.17
2018-09-17T05:40:44.705Z,78.33
2018-09-17T05:43:12.908Z,79.42
2018-09-17T05:45:41.056Z,79.21
2018-09-17T05:48:09.502Z,80.55
2018-09-17T05:50:37.791Z,80.73
2018-09-17T05:53:06.314Z,81.32
2018-09-17T05:55:34.585Z,80.44
2018-09-17T05:58:02.812Z,79.48
2018-09-17T06:00:30.966Z,76.98
2018-09-17T06:02:59.617Z,75.84
2018-09-17T06:05:28.140Z,75.44
2018-09-17T06:07:56.458Z,75.80
2018-09-17T06:10:24.716Z,75.78
2018-09-17T06:12:53.149Z,72.55
2018-09-17T06:15:21.283Z,73.52
2018-09-17T06:17:49.701Z,73.88
2018-09-17T06:20:18.065Z,73.38
2018-09-17T06:22:46.213Z,71.61
2018-09-17T06:25:14.413Z,70.28
2018-09-17T06:27:42.758Z,70.48
2018-09-17T06:30:11.115Z,71.47
2018-09-17T06:32:39.507Z,67.70
2018-09-17T06:35:07.705Z,69.61
2018-09-17T06:37:35.969Z,70.67
2018-09-17T06:40:04.205Z,68.03
2018-09-17T06:42:32.340Z,67.04
2018-09-17T06:45:00.700Z,65.39
2018-09-17T06:47:29.017Z,65.69
2018-09-17T06:49:57.201Z,66.07
2018-09-17T06:52:25.355Z,65.50
2018-09-17T06:54:53.595Z,65.75
2018-09-17T06:57:21.737Z,65.01
2018-09-17T06:59:49.773Z,66.20
2018-09-17T07:02:17.912Z,64.92
2018-09-17T07:04:46.064Z,63.53
2018-09-17T07:07:14.299Z,63.20
2018-09-17T07:09:42.513Z,62.46
2018-09-17T07:12:10.637Z,61.32
2018-09-17T07:14:39.006Z,62.30
2018-09-17T07:17:07.307Z,59.84
2018-09-17T07:19:35.565Z,61.40
2018-09-17T07:22:03.736Z,61.12
2018-09-17T07:24:31.908Z,60.07
2018-09-17T07:27:00.531Z,58.67
2018-09-17T07:29:28.814Z,55.54
2018-09-17T07:31:57.106Z,54.78
2018-09-17T07:34:25.423Z,56.11
2018-09-17T07:36:53.653Z,54.45
2018-09-17T07:39:22.142Z,55.30
2018-09-17T07:41:51.548Z,52.90
2018-09-17T07:44:20.387Z,53.16
2018-09-17T07:46:48.858Z,53.65
2018-09-17T07:49:17.258Z,53.33
2018-09-17T07:51:45.329Z,52.55
2018-09-17T07:54:13.754Z,51.56
2018-09-17T07:56:41.964Z,50.31
2018-09-17T07:59:11.497Z,51.45
2018-09-17T08:01:39.640Z,52.25
2018-09-17T08:04:07.729Z,50.99
2018-09-17T08:06:36.136Z,52.55
2018-09-17T08:09:08.930Z,51.99
2018-09-17T08:11:37.163Z,53.14
2018-09-17T08:14:05.594Z,51.41
2018-09-17T08:16:33.840Z,52.00
2018-09-17T08:19:02.043Z,51.81
2018-09-17T08:21:30.152Z,53.37
2018-09-17T08:23:58.419Z,50.51
2018-09-17T08:26:26.545Z,51.57
2018-09-17T08:28:54.680Z,50.37
2018-09-17T08:31:23.113Z,50.10
2018-09-17T08:33:51.329Z,51.60
2018-09-17T08:36:19.565Z,49.64
2018-09-17T08:38:47.719Z,50.28
2018-09-17T08:41:15.861Z,50.48
2018-09-17T08:43:44.012Z,50.44
2018-09-17T08:46:12.143Z,51.07
2018-09-17T08:48:40.268Z,50.57
2018-09-17T08:51:08.496Z,50.56
2018-09-17T08:53:36.765Z,50.65
2018-09-17T08:57:14.847Z,47.87
2018-09-17T08:59:46.921Z,48.52
2018-09-17T09:02:15.302Z,49.55
2018-09-17T09:04:49.928Z,49.62
2018-09-17T09:07:23.854Z,50.26
2018-09-17T09:09:55.401Z,47.46
2018-09-17T09:12:30.941Z,47.63
2018-09-17T09:15:04.841Z,46.81
2018-09-17T09:17:33.036Z,46.16
2018-09-17T09:20:01.349Z,46.62
2018-09-17T09:22:29.484Z,47.24
2018-09-17T09:24:57.776Z,47.78
2018-09-17T09:27:25.951Z,46.82
2018-09-17T09:29:54.100Z,48.32
2018-09-17T09:32:22.380Z,47.94
2018-09-17T09:34:51.039Z,48.15
2018-09-17T09:37:19.421Z,47.03
2018-09-17T09:39:48.115Z,45.52
2018-09-17T09:42:16.298Z,44.23
2018-09-17T09:44:50.012Z,46.92
2018-09-17T09:47:18.110Z,44.75
2018-09-17T09:49:51.859Z,46.16
2018-09-17T10:30:41.801Z,41.23
2018-09-17T10:33:10.039Z,39.82
2018-09-17T10:35:38.201Z,39.84
2018-09-17T10:38:06.328Z,41.25
2018-09-17T10:40:34.404Z,40.33
2018-09-17T10:43:02.740Z,40.31
2018-09-17T10:45:31.538Z,38.22
2018-09-17T10:48:02.481Z,38.18
2018-09-17T10:50:31.235Z,36.84
2018-09-17T10:52:59.866Z,37.59
2018-09-17T10:55:28.334Z,37.53
2018-09-17T10:57:56.783Z,38.46
2018-09-17T11:00:25.449Z,39.20
2018-09-17T11:02:53.997Z,39.51
2018-09-17T11:05:22.735Z,38.52
2018-09-17T11:07:51.308Z,39.28
2018-09-17T11:10:19.986Z,39.84
2018-09-17T11:12:48.759Z,38.91
2018-09-17T11:20:48.436Z,39.35
2018-09-17T11:23:16.985Z,38.27
2018-09-17T11:25:45.630Z,38.58
2018-09-17T11:28:14.258Z,38.23
2018-09-17T11:30:43.371Z,38.87
2018-09-17T11:33:13.958Z,39.04
2018-09-17T11:35:43.175Z,37.65
2018-09-17T11:38:12.183Z,39.13
2018-09-17T11:40:40.875Z,39.02
2018-09-17T11:43:10.550Z,39.84
2018-09-17T11:45:39.396Z,38.69
2018-09-17T11:48:08.435Z,37.11
2018-09-17T11:50:37.656Z,38.67
2018-09-17T11:53:06.581Z,38.17
2018-09-17T11:55:35.832Z,38.83
2018-09-17T11:58:05.401Z,39.48
2018-09-17T12:00:39.831Z,38.53
2018-09-17T12:03:14.030Z,38.95
2018-09-17T12:05:49.148Z,37.67
2018-09-17T12:08:19.201Z,38.32
2018-09-17T12:10:48.114Z,37.51
2018-09-17T12:13:18.221Z,37.78
2018-09-17T12:15:46.851Z,37.49
2018-09-17T12:18:15.769Z,37.35
2018-09-17T12:20:44.695Z,38.23
2018-09-17T12:23:14.052Z,38.43
2018-09-17T12:25:42.737Z,38.33
2018-09-17T12:28:12.184Z,38.12
2018-09-17T12:30:40.934Z,36.68
2018-09-17T12:33:10.292Z,37.35
2018-09-17T12:35:40.389Z,37.01
2018-09-17T12:38:10.419Z,38.04
2018-09-17T12:40:38.989Z,38.27
2018-09-17T12:43:07.929Z,37.64
2018-09-17T12:45:36.711Z,38.47
2018-09-17T12:48:05.905Z,40.37
2018-09-17T12:50:34.630Z,40.04
2018-09-17T12:53:03.554Z,39.79
2018-09-17T12:55:32.648Z,40.20
2018-09-17T12:58:01.320Z,37.17
2018-09-17T13:00:30.378Z,38.08
2018-09-17T13:02:58.996Z,37.72
2018-09-17T13:05:28.740Z,38.07
2018-09-17T13:07:57.526Z,39.46
2018-09-17T13:10:26.306Z,39.51
2018-09-17T13:12:55.045Z,41.56
2018-09-17T13:15:23.583Z,39.37
2018-09-17T13:17:52.143Z,39.30
2018-09-17T13:20:20.975Z,39.59
2018-09-17T13:22:49.600Z,40.64
2018-09-17T13:25:18.185Z,41.29
2018-09-17T13:27:47.161Z,41.50
2018-09-17T13:30:17.107Z,42.50
2018-09-17T13:32:45.681Z,45.09
2018-09-17T13:35:14.400Z,47.00
2018-09-17T13:37:42.899Z,47.82
2018-09-17T13:40:11.684Z,46.89
2018-09-17T13:42:40.208Z,47.05
2018-09-17T13:45:09.463Z,47.38
2018-09-17T13:47:38.771Z,44.09
2018-09-17T13:50:07.624Z,40.51
2018-09-17T13:52:36.283Z,41.36
2018-09-17T13:55:05.140Z,40.91
2018-09-17T13:57:33.833Z,39.83
2018-09-17T14:00:02.981Z,39.64
2018-09-17T14:02:31.796Z,42.59
2018-09-17T14:05:00.443Z,42.18
2018-09-17T14:07:29.116Z,39.41
2018-09-17T14:09:57.919Z,39.06
2018-09-17T14:12:27.126Z,37.35
2018-09-17T14:14:56.232Z,38.35
2018-09-17T14:17:25.348Z,40.88
2018-09-17T14:19:53.970Z,37.64
2018-09-17T14:22:22.320Z,37.90
2018-09-17T14:24:50.627Z,38.41
2018-09-17T14:27:19.078Z,36.37
2018-09-17T14:29:47.814Z,35.88
2018-09-17T14:33:23.118Z,34.96
2018-09-17T14:35:51.433Z,36.12
2018-09-17T14:38:19.784Z,35.83
2018-09-17T14:40:48.268Z,36.99
2018-09-17T14:43:17.208Z,36.42
2018-09-17T14:45:45.465Z,36.76
2018-09-17T14:48:13.863Z,35.59
2018-09-17T14:50:42.114Z,37.58
2018-09-17T14:53:10.431Z,37.66
2018-09-17T14:55:38.513Z,39.01
2018-09-17T14:58:06.839Z,38.80
2018-09-17T15:00:35.301Z,43.04
2018-09-17T15:03:03.421Z,44.66
2018-09-17T15:05:31.866Z,43.21
2018-09-17T15:08:00.310Z,39.72
2018-09-17T15:10:28.851Z,42.03
2018-09-17T15:12:57.329Z,40.32
2018-09-17T15:15:25.569Z,40.04
2018-09-17T15:17:53.809Z,42.22
2018-09-17T15:20:22.273Z,45.72
2018-09-17T15:22:50.366Z,43.64
2018-09-17T15:25:18.553Z,45.25
2018-09-17T15:27:47.068Z,46.97
2018-09-17T15:30:15.310Z,48.29
2018-09-17T15:32:43.760Z,48.76
2018-09-17T15:35:12.110Z,49.97
2018-09-17T15:37:40.298Z,50.08
2018-09-17T15:40:08.917Z,50.43
2018-09-17T15:42:37.110Z,51.49
2018-09-17T15:45:05.369Z,51.62
2018-09-17T15:47:33.522Z,52.23
2018-09-17T15:50:01.970Z,54.87
2018-09-17T15:52:30.101Z,54.38
2018-09-17T15:54:58.329Z,55.47
2018-09-17T15:57:26.807Z,56.36
2018-09-17T15:59:55.086Z,56.84
2018-09-17T16:02:23.498Z,58.15
2018-09-17T16:04:51.831Z,58.23
2018-09-17T16:07:20.066Z,60.57
2018-09-17T16:09:48.346Z,61.23
2018-09-17T16:12:16.611Z,62.31
2018-09-17T16:14:44.671Z,62.40
2018-09-17T16:17:12.820Z,62.45
2018-09-17T16:19:41.168Z,64.23
2018-09-17T16:22:09.306Z,65.14
2018-09-17T16:24:38.064Z,64.72
2018-09-17T16:27:06.831Z,65.83
2018-09-17T16:29:35.137Z,65.21
2018-09-17T16:32:03.441Z,65.17
2018-09-17T16:34:31.542Z,66.53
2018-09-17T16:36:59.756Z,66.01
2018-09-17T16:39:28.053Z,66.26
2018-09-17T16:41:56.304Z,67.19
2018-09-17T16:44:24.694Z,67.03
2018-09-17T16:46:53.202Z,67.29
2018-09-17T16:49:21.550Z,66.80
2018-09-17T16:51:50.039Z,64.04
2018-09-17T16:54:18.316Z,63.86
2018-09-17T16:56:46.561Z,62.82
2018-09-17T16:59:15.065Z,65.26
2018-09-17T17:01:43.274Z,66.97
2018-09-17T17:04:11.541Z,68.17
2018-09-17T17:06:40.760Z,67.09
2018-09-17T17:09:10.224Z,67.76
2018-09-17T17:11:38.507Z,69.14
2018-09-17T17:14:06.675Z,70.25
2018-09-17T17:16:34.959Z,70.37
2018-09-17T17:19:03.637Z,70.36
2018-09-17T17:21:32.443Z,71.07
2018-09-17T17:24:00.999Z,72.08
2018-09-17T17:26:29.268Z,72.16
2018-09-17T17:28:57.899Z,72.09
2018-09-17T17:31:26.214Z,72.33
2018-09-17T17:33:54.363Z,72.17
2018-09-17T17:36:23.194Z,72.02
2018-09-17T17:38:51.625Z,71.58
2018-09-17T17:41:19.968Z,71.47
2018-09-17T17:43:48.335Z,72.62
2018-09-17T17:46:16.868Z,71.08
2018-09-17T17:48:45.068Z,71.91
2018-09-17T17:51:13.374Z,72.95
2018-09-17T17:53:42.425Z,73.02
2018-09-17T17:56:10.713Z,73.76
2018-09-17T17:58:39.162Z,74.48
2018-09-17T18:01:07.850Z,73.82
2018-09-17T18:03:36.304Z,74.41
2018-09-17T18:06:04.605Z,74.14
2018-09-17T18:08:32.831Z,75.56
2018-09-17T18:11:01.159Z,75.97
2018-09-17T18:13:29.650Z,76.11
2018-09-17T18:15:58.206Z,76.16
2018-09-17T18:18:26.732Z,76.60
2018-09-17T18:20:55.609Z,76.50
2018-09-17T18:23:24.194Z,76.66
2018-09-17T18:25:52.577Z,74.89
2018-09-17T18:28:20.962Z,75.69
2018-09-17T18:30:49.405Z,75.42
2018-09-17T18:33:17.878Z,74.38
2018-09-17T18:35:46.236Z,74.47
2018-09-17T18:38:14.556Z,75.17
2018-09-17T18:40:42.757Z,75.30
2018-09-17T18:43:11.104Z,75.90
2018-09-17T18:45:39.421Z,74.86
2018-09-17T18:48:07.574Z,76.00
2018-09-17T18:50:35.791Z,76.36
2018-09-17T18:53:04.019Z,75.98
2018-09-17T18:55:32.355Z,76.31
2018-09-17T18:58:01.042Z,77.61
2018-09-17T19:00:29.289Z,75.93
2018-09-17T19:02:57.441Z,76.61
2018-09-17T19:05:25.624Z,75.26
2018-09-17T19:07:53.948Z,76.76
2018-09-17T19:10:22.367Z,77.49
2018-09-17T19:12:50.679Z,77.45
2018-09-17T19:15:24.420Z,78.42
2018-09-17T19:17:52.631Z,78.66
2018-09-17T19:20:21.479Z,78.95
2018-09-17T19:22:55.238Z,80.03
2018-09-17T19:25:23.392Z,79.16
2018-09-17T19:27:57.279Z,77.99
2018-09-17T19:30:25.917Z,80.04
2018-09-17T19:32:54.681Z,80.58
2018-09-17T19:35:23.050Z,80.54
2018-09-17T19:37:56.739Z,81.20
2018-09-17T20:17:32.289Z,83.18
2018-09-17T20:20:00.498Z,83.08
2018-09-17T20:22:28.688Z,83.08
2018-09-17T20:24:56.736Z,83.39
2018-09-17T20:27:24.829Z,81.86
2018-09-17T20:29:53.120Z,82.60
2018-09-17T20:32:21.268Z,83.56
2018-09-17T20:34:49.561Z,84.91
2018-09-17T20:37:17.882Z,84.37
2018-09-17T20:39:46.362Z,84.34
2018-09-17T20:42:14.658Z,85.56
2018-09-17T20:44:42.897Z,84.88
2018-09-17T20:47:11.229Z,86.04
2018-09-17T20:49:39.684Z,85.71
2018-09-17T20:52:08.019Z,86.26
2018-09-17T20:54:36.303Z,85.70
2018-09-17T20:57:04.451Z,85.49
2018-09-17T20:59:32.742Z,84.87
2018-09-17T21:31:18.397Z,85.26
2018-09-17T21:33:46.599Z,85.31
2018-09-17T21:36:14.574Z,84.79
2018-09-17T21:38:42.647Z,85.84
2018-09-17T21:41:10.826Z,85.51
2018-09-17T21:43:38.895Z,84.40
2018-09-17T21:46:07.267Z,85.11
2018-09-17T21:48:35.315Z,85.32
2018-09-17T21:51:03.477Z,85.02
2018-09-17T21:53:31.640Z,85.53
2018-09-17T21:55:59.783Z,86.26
2018-09-17T21:58:28.042Z,85.76
2018-09-17T22:01:02.356Z,85.56
2018-09-17T22:03:32.152Z,86.01
2018-09-17T22:06:00.319Z,86.71
2018-09-17T22:08:28.877Z,86.33
2018-09-17T22:10:57.174Z,85.87
2018-09-17T22:13:25.358Z,86.54
2018-09-17T22:15:53.468Z,86.53
2018-09-17T22:18:21.522Z,86.99
2018-09-17T22:20:49.690Z,87.33
2018-09-17T22:23:17.917Z,87.40
2018-09-17T22:25:46.112Z,87.86
2018-09-17T22:28:14.224Z,87.68
2018-09-17T22:30:42.402Z,87.63
2018-09-17T22:33:10.673Z,87.95
2018-09-17T22:35:39.148Z,87.89
2018-09-17T22:38:07.461Z,87.21
2018-09-17T22:40:35.666Z,88.25
2018-09-17T22:43:04.101Z,88.34
2018-09-17T22:45:32.268Z,87.99
2018-09-17T22:48:00.369Z,88.55
2018-09-17T22:50:28.548Z,88.05
2018-09-17T22:52:56.656Z,87.89
2018-09-17T22:55:24.747Z,88.59
2018-09-17T22:57:53.039Z,89.15
2018-09-17T23:00:21.309Z,88.83
2018-09-17T23:02:49.512Z,88.61
2018-09-17T23:05:17.805Z,89.10
2018-09-17T23:07:45.973Z,89.89
2018-09-17T23:10:14.257Z,90.17
2018-09-17T23:12:42.595Z,89.95
2018-09-17T23:15:10.791Z,90.39
2018-09-17T23:17:38.900Z,90.91
2018-09-17T23:20:07.226Z,90.38
2018-09-17T23:22:35.268Z,90.11
2018-09-17T23:25:03.491Z,90.57
2018-09-17T23:27:31.586Z,90.29
2018-09-17T23:29:59.697Z,90.83
2018-09-17T23:32:27.896Z,90.57
2018-09-17T23:34:56.018Z,90.84
2018-09-17T23:37:24.197Z,91.54
2018-09-17T23:39:52.526Z,91.70
2018-09-17T23:42:20.681Z,91.95
2018-09-17T23:44:48.888Z,92.83
2018-09-17T23:47:17.024Z,91.95
2018-09-17T23:49:45.366Z,91.76
2018-09-17T23:52:13.438Z,93.59
2018-09-17T23:54:41.591Z,95.48
2018-09-17T23:57:09.838Z,94.91
2018-09-17T23:59:37.911Z,93.74
